createdAt,value
2023-05-02T00:00:02.179Z,1.48
2023-05-02T00:02:33.206Z,1.25
2023-05-02T00:05:01.121Z,1.33
2023-05-02T00:07:29.930Z,1.40
2023-05-02T00:09:58.670Z,1.50
2023-05-02T00:12:26.308Z,1.50
2023-05-02T00:14:53.823Z,1.52
2023-05-02T00:17:21.545Z,1.50
2023-05-02T00:19:49.148Z,1.40
2023-05-02T00:22:16.524Z,1.70
2023-05-02T00:24:43.980Z,1.60
2023-05-02T00:27:11.394Z,1.20
2023-05-02T00:29:39.152Z,1.60
2023-05-02T00:32:07.024Z,1.60
2023-05-02T00:34:34.417Z,1.83
2023-05-02T00:37:01.784Z,1.70
2023-05-02T00:39:29.123Z,1.95
2023-05-02T00:41:58.143Z,1.55
2023-05-02T00:44:25.731Z,1.40
2023-05-02T00:46:53.538Z,1.67
2023-05-02T00:49:20.887Z,1.45
2023-05-02T00:51:51.579Z,1.40
2023-05-02T00:54:19.062Z,1.60
2023-05-02T00:56:48.321Z,1.40
2023-05-02T00:59:16.729Z,1.35
2023-05-02T01:01:47.695Z,1.17
2023-05-02T01:04:18.031Z,1.40
2023-05-02T01:07:03.603Z,1.23
2023-05-02T01:09:48.050Z,1.33
2023-05-02T01:12:43.022Z,1.20
2023-05-02T01:15:16.358Z,1.20
2023-05-02T01:17:45.911Z,1.30
2023-05-02T01:20:17.532Z,1.20
2023-05-02T01:22:45.321Z,1.40
2023-05-02T01:25:37.823Z,1.30
2023-05-02T01:28:48.239Z,1.10
2023-05-02T01:31:16.392Z,1.10
2023-05-02T01:33:46.225Z,1.30
2023-05-02T01:36:16.384Z,1.05
2023-05-02T01:38:45.570Z,1.10
2023-05-02T01:41:14.374Z,1.23
2023-05-02T01:43:43.008Z,1.02
2023-05-02T01:46:14.416Z,1.10
2023-05-02T01:48:47.185Z,1.20
2023-05-02T01:51:19.381Z,1.30
2023-05-02T01:53:50.207Z,1.10
2023-05-02T01:56:19.377Z,1.10
2023-05-02T01:58:48.363Z,1.10
2023-05-02T02:01:17.240Z,1.10
2023-05-02T02:03:47.433Z,1.08
2023-05-02T02:06:16.255Z,1.15
2023-05-02T02:08:43.843Z,1.13
2023-05-02T02:11:15.833Z,0.90
2023-05-02T02:13:50.868Z,1.10
2023-05-02T02:16:26.162Z,1.17
2023-05-02T02:18:56.467Z,0.80
2023-05-02T02:21:26.948Z,1.00
2023-05-02T02:23:57.883Z,1.10
2023-05-02T02:26:25.400Z,1.08
2023-05-02T02:28:52.806Z,1.00
2023-05-02T02:31:20.998Z,0.90
2023-05-02T02:33:49.412Z,1.00
2023-05-02T02:36:27.910Z,0.93
2023-05-02T02:39:18.057Z,1.02
2023-05-02T02:42:14.236Z,0.90
2023-05-02T02:44:52.595Z,1.13
2023-05-02T02:47:41.369Z,1.27
2023-05-02T02:50:16.717Z,1.10
2023-05-02T02:52:59.005Z,0.90
2023-05-02T02:55:45.086Z,0.88
2023-05-02T02:58:43.596Z,1.10
2023-05-02T03:01:20.280Z,1.25
2023-05-02T03:03:49.585Z,0.88
2023-05-02T03:06:20.871Z,0.75
2023-05-02T03:08:48.503Z,0.90
2023-05-02T03:11:22.637Z,0.90
2023-05-02T03:13:50.030Z,0.90
2023-05-02T03:16:40.334Z,1.05
2023-05-02T03:19:11.786Z,1.00
2023-05-02T03:21:39.490Z,1.00
2023-05-02T03:24:13.540Z,0.90
2023-05-02T03:26:41.199Z,0.90
2023-05-02T03:29:11.155Z,1.40
2023-05-02T03:31:42.233Z,1.15
2023-05-02T03:34:10.046Z,1.40
2023-05-02T03:36:38.863Z,1.25
2023-05-02T03:39:06.830Z,1.05
2023-05-02T03:41:34.254Z,1.30
2023-05-02T03:44:06.944Z,0.88
2023-05-02T03:46:34.856Z,1.00
2023-05-02T03:49:08.372Z,0.60
2023-05-02T03:51:36.204Z,0.93
2023-05-02T03:54:04.185Z,0.60
2023-05-02T03:56:32.636Z,0.68
2023-05-02T03:59:12.125Z,0.73
2023-05-02T04:01:39.559Z,0.70
2023-05-02T04:04:07.842Z,0.70
2023-05-02T04:06:43.560Z,0.55
2023-05-02T04:09:11.408Z,0.88
2023-05-02T04:11:49.286Z,0.60
2023-05-02T04:14:17.031Z,0.70
2023-05-02T04:16:50.043Z,0.60
2023-05-02T04:19:22.048Z,0.70
2023-05-02T04:21:49.710Z,0.70
2023-05-02T04:24:17.520Z,0.70
2023-05-02T04:26:47.578Z,0.75
2023-05-02T04:29:15.627Z,0.77
2023-05-02T04:31:43.452Z,0.70
2023-05-02T04:34:12.188Z,0.70
2023-05-02T04:36:46.689Z,0.70
2023-05-02T04:39:18.894Z,0.75
2023-05-02T04:41:56.328Z,0.70
2023-05-02T04:44:26.745Z,0.80
2023-05-02T04:46:55.455Z,0.80
2023-05-02T04:49:23.056Z,0.70
2023-05-02T04:51:53.429Z,0.90
2023-05-02T04:54:22.796Z,0.80
2023-05-02T04:56:53.488Z,0.90
2023-05-02T04:59:21.786Z,1.10
2023-05-02T05:01:53.254Z,0.68
2023-05-02T05:04:20.691Z,0.77
2023-05-02T05:06:49.321Z,1.02
2023-05-02T05:09:17.156Z,1.00
2023-05-02T05:11:46.191Z,1.00
2023-05-02T05:14:16.033Z,0.80
2023-05-02T05:16:47.408Z,1.10
2023-05-02T05:19:15.175Z,1.02
2023-05-02T05:21:42.544Z,0.90
2023-05-02T05:24:10.220Z,0.98
2023-05-02T05:26:38.152Z,1.10
2023-05-02T05:29:08.377Z,1.20
2023-05-02T05:31:41.945Z,1.42
2023-05-02T05:34:10.992Z,1.10
2023-05-02T05:36:40.491Z,0.95
2023-05-02T05:39:08.217Z,0.90
2023-05-02T05:41:38.267Z,1.10
2023-05-02T05:44:08.567Z,1.20
2023-05-02T05:46:36.170Z,1.20
2023-05-02T05:49:04.831Z,1.10
2023-05-02T05:51:32.300Z,1.30
2023-05-02T05:54:00.830Z,0.90
2023-05-02T05:56:28.816Z,1.08
2023-05-02T05:59:07.515Z,1.10
2023-05-02T06:01:35.903Z,1.50
2023-05-02T06:04:06.542Z,1.50
2023-05-02T06:09:04.352Z,1.10
2023-05-02T06:11:33.110Z,1.15
2023-05-02T06:14:00.625Z,1.08
2023-05-02T06:16:28.115Z,1.15
2023-05-02T06:18:55.736Z,1.20
2023-05-02T06:21:23.102Z,1.15
2023-05-02T06:23:50.482Z,1.00
2023-05-02T06:26:17.812Z,1.00
2023-05-02T06:28:45.206Z,0.93
2023-05-02T06:31:12.712Z,1.40
2023-05-02T06:33:41.024Z,1.30
2023-05-02T06:36:08.348Z,1.25
2023-05-02T06:38:36.084Z,1.63
2023-05-02T06:41:03.482Z,1.40
2023-05-02T06:43:30.944Z,1.45
2023-05-02T06:45:58.830Z,1.48
2023-05-02T06:48:26.300Z,1.20
2023-05-02T06:50:54.349Z,1.40
2023-05-02T06:53:21.751Z,1.00
2023-05-02T06:55:49.755Z,1.00
2023-05-02T06:58:17.306Z,1.10
2023-05-02T07:00:48.946Z,1.50
2023-05-02T07:03:16.722Z,1.60
2023-05-02T07:05:44.102Z,1.45
2023-05-02T07:08:11.572Z,1.80
2023-05-02T07:10:38.924Z,1.33
2023-05-02T07:13:06.308Z,1.63
2023-05-02T07:15:33.657Z,1.38
2023-05-02T07:18:01.477Z,1.55
2023-05-02T07:20:28.943Z,1.23
2023-05-02T07:22:56.433Z,1.40
2023-05-02T07:25:24.062Z,1.30
2023-05-02T07:27:51.408Z,1.20
2023-05-02T07:30:18.773Z,1.05
2023-05-02T07:32:46.160Z,1.35
2023-05-02T07:35:13.591Z,1.52
2023-05-02T07:37:41.502Z,1.45
2023-05-02T07:40:09.582Z,1.05
2023-05-02T07:42:36.980Z,1.50
2023-05-02T07:45:04.655Z,1.40
2023-05-02T07:47:32.579Z,1.20
2023-05-02T07:50:00.425Z,1.00
2023-05-02T07:52:28.115Z,1.00
2023-05-02T07:54:55.625Z,0.82
2023-05-02T07:57:23.954Z,0.82
2023-05-02T07:59:51.393Z,1.00
2023-05-02T08:02:20.811Z,0.93
2023-05-02T08:04:48.291Z,1.00
2023-05-02T08:07:16.263Z,0.80
2023-05-02T08:09:43.864Z,1.10
2023-05-02T08:12:11.278Z,1.30
2023-05-02T08:14:38.621Z,1.40
2023-05-02T08:17:06.070Z,1.23
2023-05-02T08:19:36.378Z,1.20
2023-05-02T08:22:03.819Z,1.40
2023-05-02T08:24:31.463Z,0.93
2023-05-02T08:26:58.875Z,0.70
2023-05-02T08:29:26.234Z,0.80
2023-05-02T08:31:53.745Z,1.00
2023-05-02T08:34:21.299Z,1.27
2023-05-02T08:36:48.820Z,1.25
2023-05-02T08:39:17.059Z,1.58
2023-05-02T08:41:44.955Z,6.85
2023-05-02T08:44:12.571Z,2.20
2023-05-02T08:46:42.198Z,1.50
2023-05-02T08:49:16.757Z,1.23
2023-05-02T08:51:45.406Z,1.50
2023-05-02T08:54:17.270Z,1.50
2023-05-02T08:56:46.057Z,1.55
2023-05-02T08:59:13.347Z,1.60
2023-05-02T09:01:44.777Z,1.40
2023-05-02T09:04:12.643Z,1.67
2023-05-02T09:06:40.163Z,1.40
2023-05-02T09:09:08.501Z,1.58
2023-05-02T09:11:37.082Z,1.00
2023-05-02T09:14:14.980Z,1.42
2023-05-02T09:16:42.598Z,1.30
2023-05-02T09:19:10.105Z,1.40
2023-05-02T09:21:41.231Z,1.30
2023-05-02T09:24:20.522Z,1.27
2023-05-02T09:26:59.454Z,1.40
2023-05-02T09:29:28.634Z,1.00
2023-05-02T09:31:56.901Z,0.90
2023-05-02T09:34:24.525Z,0.70
2023-05-02T09:36:54.439Z,0.80
2023-05-02T09:39:26.828Z,0.70
2023-05-02T09:41:54.722Z,0.73
2023-05-02T09:44:24.490Z,0.73
2023-05-02T09:46:54.522Z,0.90
2023-05-02T09:49:42.951Z,0.90
2023-05-02T09:52:15.254Z,0.70
2023-05-02T09:54:43.170Z,0.68
2023-05-02T09:57:11.498Z,0.90
2023-05-02T09:59:40.112Z,0.98
2023-05-02T10:02:09.772Z,0.80
2023-05-02T10:04:39.101Z,0.63
2023-05-02T10:07:10.280Z,0.55
2023-05-02T10:09:43.144Z,0.50
2023-05-02T10:14:49.123Z,0.60
2023-05-02T10:17:28.226Z,0.65
2023-05-02T10:20:03.775Z,0.60
2023-05-02T10:22:31.976Z,0.60
2023-05-02T10:25:01.219Z,0.80
2023-05-02T10:27:33.000Z,0.55
2023-05-02T10:30:02.404Z,0.70
2023-05-02T10:32:32.823Z,0.70
2023-05-02T10:35:05.471Z,0.60
2023-05-02T10:37:36.226Z,0.70
2023-05-02T10:40:05.936Z,0.70
2023-05-02T10:42:39.246Z,0.40
2023-05-02T10:45:30.371Z,0.63
2023-05-02T10:48:18.782Z,0.50
2023-05-02T10:50:48.497Z,0.60
2023-05-02T10:53:22.261Z,0.50
2023-05-02T10:56:08.158Z,0.60
2023-05-02T10:58:35.551Z,0.60
2023-05-02T11:01:32.487Z,0.68
2023-05-02T11:04:05.084Z,0.75
2023-05-02T11:06:37.702Z,0.68
2023-05-02T11:09:18.510Z,0.70
2023-05-02T11:11:46.961Z,0.70
2023-05-02T11:14:26.279Z,0.73
2023-05-02T11:16:59.851Z,0.70
2023-05-02T11:19:29.825Z,0.75
2023-05-02T11:22:17.529Z,0.98
2023-05-02T11:24:49.574Z,0.90
2023-05-02T11:30:01.039Z,0.95
2023-05-02T11:32:50.203Z,0.90
2023-05-02T11:35:24.794Z,1.08
2023-05-02T11:37:59.859Z,1.20
2023-05-02T11:40:28.309Z,1.00
2023-05-02T11:42:57.558Z,0.80
2023-05-02T11:45:39.146Z,0.80
2023-05-02T11:48:07.571Z,0.90
2023-05-02T11:50:52.255Z,0.90
2023-05-02T11:53:25.633Z,1.00
2023-05-02T11:55:54.785Z,0.93
2023-05-02T11:58:24.330Z,1.23
2023-05-02T12:00:52.954Z,0.70
2023-05-02T12:03:38.395Z,0.70
2023-05-02T12:06:12.255Z,0.80
2023-05-02T12:08:41.573Z,0.80
2023-05-02T12:11:09.373Z,0.90
2023-05-02T12:13:48.564Z,1.00
2023-05-02T12:16:17.292Z,0.70
2023-05-02T12:18:45.438Z,0.80
2023-05-02T12:21:13.064Z,0.80
2023-05-02T12:23:42.304Z,0.80
2023-05-02T12:26:29.471Z,0.80
2023-05-02T12:28:58.445Z,0.63
2023-05-02T12:31:29.293Z,0.60
2023-05-02T12:33:59.372Z,0.65
2023-05-02T12:36:30.814Z,0.70
2023-05-02T12:38:59.709Z,0.70
2023-05-02T12:41:38.357Z,0.65
2023-05-02T12:44:07.236Z,0.70
2023-05-02T12:46:34.787Z,0.40
2023-05-02T12:49:10.095Z,0.70
2023-05-02T12:51:39.459Z,0.68
2023-05-02T12:54:07.370Z,0.60
2023-05-02T12:56:43.749Z,0.50
2023-05-02T12:59:29.984Z,0.70
2023-05-02T13:02:01.155Z,0.63
2023-05-02T13:04:36.320Z,0.52
2023-05-02T13:07:03.716Z,0.57
2023-05-02T13:09:31.246Z,0.55
2023-05-02T13:11:59.075Z,0.40
2023-05-02T13:14:26.433Z,0.73
2023-05-02T13:16:55.285Z,0.70
2023-05-02T13:19:22.974Z,0.77
2023-05-02T13:21:52.970Z,0.60
2023-05-02T13:24:20.389Z,0.60
2023-05-02T13:26:47.796Z,0.75
2023-05-02T13:29:17.975Z,0.60
2023-05-02T13:31:45.264Z,0.80
2023-05-02T13:34:12.619Z,0.47
2023-05-02T13:36:46.125Z,0.63
2023-05-02T13:39:15.136Z,0.50
2023-05-02T13:41:42.552Z,0.50
2023-05-02T13:44:10.080Z,0.65
2023-05-02T13:46:38.377Z,0.75
2023-05-02T13:49:06.328Z,0.70
2023-05-02T13:51:33.750Z,0.80
2023-05-02T13:54:01.480Z,0.77
2023-05-02T13:56:28.862Z,0.80
2023-05-02T13:58:56.447Z,0.80
2023-05-02T14:01:26.631Z,0.80
2023-05-02T14:03:55.503Z,1.00
2023-05-02T14:06:23.077Z,0.63
2023-05-02T14:08:53.346Z,0.57
2023-05-02T14:11:20.746Z,0.60
2023-05-02T14:13:48.108Z,0.68
2023-05-02T14:16:15.488Z,0.80
2023-05-02T14:18:45.010Z,0.90
2023-05-02T14:21:12.317Z,0.82
2023-05-02T14:23:39.640Z,0.75
2023-05-02T14:26:07.034Z,0.73
2023-05-02T14:28:34.465Z,0.70
2023-05-02T14:31:01.877Z,0.77
2023-05-02T14:33:29.286Z,0.50
2023-05-02T14:35:56.748Z,0.60
2023-05-02T14:38:24.262Z,0.50
2023-05-02T14:40:51.600Z,0.50
2023-05-02T14:43:19.005Z,0.50
2023-05-02T14:45:46.302Z,0.52
2023-05-02T14:48:17.494Z,0.60
2023-05-02T14:50:44.938Z,0.60
2023-05-02T14:53:13.010Z,0.60
2023-05-02T14:55:40.661Z,0.60
2023-05-02T14:58:10.357Z,0.90
2023-05-02T15:00:39.050Z,0.68
2023-05-02T15:03:08.034Z,0.80
2023-05-02T15:05:36.922Z,0.80
2023-05-02T15:08:04.954Z,0.90
2023-05-02T15:10:36.222Z,1.00
2023-05-02T15:13:07.203Z,1.17
2023-05-02T15:15:35.273Z,0.90
2023-05-02T15:18:05.602Z,0.98
2023-05-02T15:20:33.104Z,1.00
2023-05-02T15:23:03.464Z,1.00
2023-05-02T15:25:31.653Z,0.90
2023-05-02T15:27:59.157Z,0.98
2023-05-02T15:30:26.689Z,1.05
2023-05-02T15:32:54.172Z,1.00
2023-05-02T15:35:21.529Z,1.10
2023-05-02T15:37:48.923Z,0.95
2023-05-02T15:40:16.336Z,1.10
2023-05-02T15:42:43.773Z,0.93
2023-05-02T15:45:13.560Z,0.88
2023-05-02T15:47:41.284Z,0.82
2023-05-02T15:50:10.812Z,0.93
2023-05-02T15:52:41.290Z,0.85
2023-05-02T15:55:08.951Z,1.00
2023-05-02T15:57:36.414Z,1.00
2023-05-02T16:00:04.344Z,1.00
2023-05-02T16:02:32.290Z,1.00
2023-05-02T16:05:02.570Z,1.05
2023-05-02T16:07:29.991Z,0.95
2023-05-02T16:09:58.427Z,0.98
2023-05-02T16:12:26.536Z,0.93
2023-05-02T16:14:56.019Z,0.90
2023-05-02T16:17:25.227Z,0.90
2023-05-02T16:19:52.661Z,0.60
2023-05-02T16:22:19.959Z,0.90
2023-05-02T16:24:47.316Z,0.82
2023-05-02T16:27:14.683Z,0.90
2023-05-02T16:29:42.215Z,0.88
2023-05-02T16:32:09.531Z,0.90
2023-05-02T16:34:37.715Z,0.75
2023-05-02T16:37:05.170Z,0.90
2023-05-02T16:39:33.928Z,0.80
2023-05-02T16:42:01.889Z,0.90
2023-05-02T16:44:30.384Z,1.02
2023-05-02T16:46:57.906Z,0.90
2023-05-02T16:49:25.399Z,0.82
2023-05-02T16:51:54.930Z,0.82
2023-05-02T16:54:22.330Z,1.00
2023-05-02T16:56:49.669Z,0.90
2023-05-02T16:59:17.250Z,1.00
2023-05-02T17:01:44.782Z,1.15
2023-05-02T17:04:12.207Z,0.88
2023-05-02T17:06:39.601Z,0.80
2023-05-02T17:09:07.370Z,1.30
2023-05-02T17:11:34.840Z,1.00
2023-05-02T17:14:02.212Z,1.10
2023-05-02T17:16:29.766Z,0.90
2023-05-02T17:18:57.284Z,1.10
2023-05-02T17:21:27.854Z,1.00
2023-05-02T17:23:55.747Z,1.00
2023-05-02T17:26:23.302Z,0.82
2023-05-02T17:28:53.482Z,0.90
2023-05-02T17:31:20.932Z,1.15
2023-05-02T17:33:48.361Z,1.00
2023-05-02T17:36:16.233Z,1.08
2023-05-02T17:38:45.042Z,1.33
2023-05-02T17:41:12.452Z,1.50
2023-05-02T17:43:42.303Z,1.05
2023-05-02T17:46:10.072Z,0.80
2023-05-02T17:48:37.540Z,1.00
2023-05-02T17:51:05.645Z,1.05
2023-05-02T17:53:34.659Z,0.80
2023-05-02T17:56:05.952Z,1.00
2023-05-02T17:58:36.365Z,1.10
2023-05-02T18:01:08.119Z,1.10
2023-05-02T18:03:36.385Z,1.20
2023-05-02T18:06:04.059Z,1.20
2023-05-02T18:08:31.451Z,1.20
2023-05-02T18:10:59.491Z,1.30
2023-05-02T18:13:27.703Z,1.00
2023-05-02T18:15:59.622Z,1.10
2023-05-02T18:20:54.291Z,1.35
2023-05-02T18:23:21.682Z,1.20
2023-05-02T18:25:49.049Z,1.00
2023-05-02T18:28:16.452Z,1.20
2023-05-02T18:30:43.903Z,1.30
2023-05-02T18:33:11.342Z,1.48
2023-05-02T18:35:38.856Z,1.60
2023-05-02T18:38:06.951Z,1.63
2023-05-02T18:40:34.327Z,1.30
2023-05-02T18:43:02.203Z,1.67
2023-05-02T18:45:29.814Z,1.67
2023-05-02T18:47:57.217Z,1.58
2023-05-02T18:50:26.179Z,1.45
2023-05-02T18:52:53.773Z,1.45
2023-05-02T18:55:24.934Z,1.48
2023-05-02T18:57:52.729Z,1.40
2023-05-02T19:00:20.567Z,1.30
2023-05-02T19:02:51.637Z,1.30
2023-05-02T19:05:19.151Z,1.43
2023-05-02T19:07:46.478Z,1.35
2023-05-02T19:10:13.974Z,1.27
2023-05-02T19:12:41.998Z,1.30
2023-05-02T19:15:11.209Z,1.13
2023-05-02T19:17:38.606Z,1.38
2023-05-02T19:20:10.682Z,1.23
2023-05-02T19:25:06.082Z,1.10
2023-05-02T19:27:33.388Z,1.00
2023-05-02T19:30:00.912Z,1.00
2023-05-02T19:32:28.668Z,1.17
2023-05-02T19:34:56.844Z,0.95
2023-05-02T19:37:24.132Z,0.98
2023-05-02T19:39:51.504Z,1.10
2023-05-02T19:42:19.500Z,1.20
2023-05-02T19:44:50.277Z,1.00
2023-05-02T19:47:17.614Z,1.05
2023-05-02T19:49:45.104Z,1.23
2023-05-02T19:52:12.556Z,1.10
2023-05-02T19:54:40.284Z,1.10
2023-05-02T19:57:07.634Z,1.35
2023-05-02T19:59:35.009Z,0.90
2023-05-02T20:02:02.405Z,1.10
2023-05-02T20:04:29.811Z,0.90
2023-05-02T20:06:57.149Z,0.93
2023-05-02T20:09:25.193Z,0.82
2023-05-02T20:11:52.508Z,0.90
2023-05-02T20:14:20.026Z,1.05
2023-05-02T20:16:47.702Z,1.00
2023-05-02T20:19:15.115Z,0.90
2023-05-02T20:21:42.510Z,0.98
2023-05-02T20:24:09.841Z,0.98
2023-05-02T20:26:37.357Z,1.10
2023-05-02T20:29:04.851Z,0.93
2023-05-02T20:31:32.286Z,1.20
2023-05-02T20:34:00.335Z,0.70
2023-05-02T20:36:29.365Z,0.60
2023-05-02T20:38:57.753Z,0.90
2023-05-02T20:41:27.783Z,1.00
2023-05-02T20:43:55.431Z,0.85
2023-05-02T20:46:23.127Z,1.00
2023-05-02T20:48:53.506Z,0.90
2023-05-02T20:51:21.462Z,0.70
2023-05-02T20:53:49.007Z,0.80
2023-05-02T20:56:16.353Z,0.90
2023-05-02T20:58:43.652Z,0.80
2023-05-02T21:01:11.623Z,0.70
2023-05-02T21:03:41.109Z,0.68
2023-05-02T21:06:08.879Z,0.70
2023-05-02T21:08:36.899Z,0.45
2023-05-02T21:11:13.519Z,0.70
2023-05-02T21:13:41.898Z,0.70
2023-05-02T21:16:20.440Z,0.60
2023-05-02T21:18:48.015Z,0.60
2023-05-02T21:21:15.432Z,0.60
2023-05-02T21:23:42.803Z,0.50
2023-05-02T21:26:10.236Z,0.50
2023-05-02T21:28:40.435Z,0.52
2023-05-02T21:31:07.979Z,0.60
2023-05-02T21:33:35.804Z,0.85
2023-05-02T21:36:03.348Z,0.70
2023-05-02T21:38:30.764Z,0.80
2023-05-02T21:41:02.460Z,0.60
2023-05-02T21:43:31.831Z,0.95
2023-05-02T21:45:59.262Z,0.77
2023-05-02T21:48:26.756Z,0.70
2023-05-02T21:50:54.266Z,0.80
2023-05-02T21:53:21.662Z,0.88
2023-05-02T21:55:49.028Z,0.70
2023-05-02T21:58:16.417Z,0.95
2023-05-02T22:00:45.317Z,0.90
2023-05-02T22:03:12.794Z,0.75
2023-05-02T22:05:41.622Z,0.80
2023-05-02T22:08:11.134Z,0.80
2023-05-02T22:10:42.985Z,0.80
2023-05-02T22:13:12.399Z,0.90
2023-05-02T22:15:45.691Z,0.93
2023-05-02T22:18:14.381Z,0.77
2023-05-02T22:20:42.314Z,0.90
2023-05-02T22:23:12.487Z,0.98
2023-05-02T22:25:42.660Z,0.82
2023-05-02T22:28:13.828Z,0.90
2023-05-02T22:30:44.060Z,1.05
2023-05-02T22:33:12.061Z,1.05
2023-05-02T22:35:39.570Z,1.00
2023-05-02T22:38:10.281Z,1.00
2023-05-02T22:40:37.719Z,1.08
2023-05-02T22:43:05.119Z,0.80
2023-05-02T22:45:32.513Z,0.98
2023-05-02T22:47:59.911Z,1.10
2023-05-02T22:50:27.803Z,1.13
2023-05-02T22:52:59.586Z,1.25
2023-05-02T22:55:27.053Z,1.13
2023-05-02T22:57:54.399Z,1.00
2023-05-02T23:00:23.455Z,1.33
2023-05-02T23:02:51.018Z,1.30
2023-05-02T23:05:21.260Z,1.17
2023-05-02T23:07:49.018Z,1.30
2023-05-02T23:10:16.736Z,1.15
2023-05-02T23:12:44.090Z,1.20
2023-05-02T23:15:11.965Z,1.38
2023-05-02T23:17:41.093Z,1.48
2023-05-02T23:20:10.378Z,1.60
2023-05-02T23:22:44.535Z,1.58
2023-05-02T23:25:13.897Z,1.52
2023-05-02T23:27:41.253Z,1.75
2023-05-02T23:30:09.296Z,2.00
2023-05-02T23:32:36.823Z,2.08
2023-05-02T23:35:06.188Z,2.10
2023-05-02T23:37:33.878Z,2.42
2023-05-02T23:40:01.738Z,2.60
2023-05-02T23:42:30.197Z,2.70
2023-05-02T23:44:57.827Z,2.85
2023-05-02T23:47:28.765Z,2.80
2023-05-02T23:49:56.365Z,2.65
2023-05-02T23:52:23.822Z,2.60
2023-05-02T23:54:52.646Z,2.85
2023-05-02T23:57:20.033Z,3.13
2023-05-02T23:59:47.410Z,2.60
